Shiro, TX (77876)

8:09 PM CDT on September 19, 2014 (GMT -0500)
Scales Ranch Road | Change Station
CLOSE
Current Station
Personal Weather Station
Location: Huntsville, TX
Elevation: 318 ft
Nearby Weather Stations

Elev 318 ft 30.77 °N, 95.80 °W | Updated 4 minutes ago

Partly Cloudy
Partly Cloudy
76.7 °F
Feels Like 77 °F
N
0.0
Wind Variable Wind from ESE
Gusts 7.0 mph

Today
High -- | Low -- °F
--% Chance of Precip.
Yesterday
High -- | Low -- °F
Precip. -- in
7:10 AM 7:23 PM
Waning Crescent, 15% visible
Pressure 29.90 in
Visibility 10.0 miles
Clouds Few 12000 ft
Heat Index 77 °F
Dew Point 75 °F
Humidity 94%
Rainfall 0.27 in
Snow Depth Not available.
UV 0 out of 12
Pollen 7.70 out of 12
Air Quality Not available.
Flu Activity Not available.
METAR KUTS 200053Z AUTO 11004KT 10SM FEW120 26/22 A2991 RMK AO2 SLP125 T02610217

More Conditions Fewer Conditions

Pressure 29.90 in
Visibility 10.0 miles
Clouds Few 12000 ft
Heat Index 77 °F
Dew Point 75 °F
Humidity 94%
Rainfall 0.27 in
Snow Depth Not available.
UV 0 out of 12
Pollen 7.70 out of 12
Air Quality Not available.
Flu Activity Not available.
METAR KUTS 200053Z AUTO 11004KT 10SM FEW120 26/22 A2991 RMK AO2 SLP125 T02610217

More Conditions Fewer Conditions

10-Day Weather Forecast

Almanac

Astronomy

Sep. 19, 2014 Rise Set
Actual Time 7:10 AM CDT 7:23 PM CDT
Civil Twilight 6:46 AM CDT 7:47 PM CDT
Nautical Twilight 6:18 AM CDT 8:16 PM CDT
Astronomical Twilight 5:49 AM CDT 8:44 PM CDT
Moon 3:10 AM CDT (9/19) 4:41 PM CDT (9/19)
Length of Visible Light 13h 01m
Length of Day
12h 13m
Tomorrow will be 1m 50s shorter.
Waning Crescent, 15% of the Moon is Illuminated
Today
Waning Crescent
Sep 24
New
Oct 1
First Quarter
Oct 8
Full
Oct 15
Last Quarter

Today's Extremes

State Highs State Lows

Community

WunderPhotos

Upload Photos

1,754,756 photos uploaded!

WunderBlogs® & News

Nearby

Snow Depth

Station Depth Elevation
No new snow has been reported.

Earthquake Activity

City Distance Mag. Time & Date
No recent earthquake activity has been reported nearby.
Minimum magnitude displayed is 2.5.

Coastal Water Temperatures

Place Temperature
No Stations Reporting

Nearby Weather Stations